메인 페이지
METAR-TAF:

METAR-TAF

공항 :

잭슨빌, 플로리다, 미국

위도: 30-14-03N, 경도: 081-40-29W, 고도: 6m

현재 날씨관측

예보는 1 시간 23분 전, 12:53시(UTC)에 발표되었습니다.
남서6kt
온도 25°C
습도 83%
기압 1018 hPa
시정: 16.1km
고도 1500ft 상공 구름 조금
고도 25000ft 상공 구름 보통

METAR: KNIP 301253Z 23006KT 10SM FEW015 SCT250 25/22 A3006 RMK AO2 SLP173 T02500217

시각: 10:16 (14:16 UTC)

예보

예보 대상 시간: 30일 07시부터 31일 07시까지 (UTC)
여러 방향의 바람 6kt
시정 10km 이상
고도 700ft 상공 구름 많음
고도 10000ft 상공 구름 많음
일시적
30일 09시부터 30일 15시까지 (UTC)
시정: 8000m
고도 2000ft 상공 구름 많음
약한소나기, 박무
전환 중
30일 15시부터 30일 17시까지 (UTC)
남남서6kt
시정 10km 이상
고도 2000ft 상공 구름 보통
고도 15000ft 상공 구름 많음
전환 중
30일 19시부터 30일 21시까지 (UTC)
남남서8kt
시정 10km 이상
고도 2000ft 상공 구름 보통, 적란운.
고도 25000ft 상공 구름 많음
시계 내 뇌우
일시적
30일 21시부터 31일 01시까지 (UTC)
시정: 3200m
고도 2000ft 상공 구름 보통, 적란운.
고도 25000ft 상공 구름 많음
뇌우, 비
전환 중
31일 01시부터 31일 03시까지 (UTC)
10kt
시정: 0748m
고도 2000ft 상공 구름 보통

TAF: KNIP 3007/3107 VRB06KT 9999 BKN007 BKN100 QNH2997INS TEMPO 3009/3015 8000 -SHRA BR BKN020 BECMG 3015/3017 21006KT 9999 NSW SCT020 BKN150 QNH2999INS BECMG 3019/3021 21008KT 9999 VCTS SCT020CB BKN250 QNH2991INS TEMPO 3021/3101 3200 TSRA SCT020CB BKN250 BECMG 3101/3103 19010KT 9999 NSW SCT020 QNH2990INS T24/3011Z T33/3020Z AMD 0748 FN00226

4,000개 이상의 공항 관측 자료 및 예보 (METAR 및 TAF 보고).

지도상에서 검색 가능한 기상관측소가 노란 점과 빨간 점으로 표시되어 있습니다.

기상관측소 명을 보려면 표시 위로 마우스를 이동하세요.

날씨 관측과 예보를 보려면 클릭하세요.

지도 변경 : 확대하려면 엑스 표시가 있는 녹색 버튼, 축소하려면 빼기 표시가 있는 녹색 버튼, 다음 페이지의 지도를 보려면 녹색 화살표를 클릭하세요.


METAR-TAF: